sensor_id;sensor_type;location;lat;lon;timestamp;temperature;humidity
20862;DHT22;10591;52.532;13.348;2023-02-17T00:01:21;8.65;76.35
20862;DHT22;10591;52.532;13.348;2023-02-17T00:03:53;8.32;78.23
20862;DHT22;10591;52.532;13.348;2023-02-17T00:06:25;8.14;79.22
20862;DHT22;10591;52.532;13.348;2023-02-17T00:08:58;8.13;79.56
20862;DHT22;10591;52.532;13.348;2023-02-17T00:11:30;7.90;81.08
20862;DHT22;10591;52.532;13.348;2023-02-17T00:14:02;7.84;81.69
20862;DHT22;10591;52.532;13.348;2023-02-17T00:16:33;7.91;80.91
20862;DHT22;10591;52.532;13.348;2023-02-17T00:19:04;7.82;81.73
20862;DHT22;10591;52.532;13.348;2023-02-17T00:21:36;7.76;82.34
20862;DHT22;10591;52.532;13.348;2023-02-17T00:24:07;7.81;82.60
20862;DHT22;10591;52.532;13.348;2023-02-17T00:26:38;7.84;82.02
20862;DHT22;10591;52.532;13.348;2023-02-17T00:29:08;7.89;81.56
20862;DHT22;10591;52.532;13.348;2023-02-17T00:31:39;8.04;81.52
20862;DHT22;10591;52.532;13.348;2023-02-17T00:34:11;7.83;81.85
20862;DHT22;10591;52.532;13.348;2023-02-17T00:36:44;7.90;82.11
20862;DHT22;10591;52.532;13.348;2023-02-17T00:39:18;7.94;81.25
20862;DHT22;10591;52.532;13.348;2023-02-17T00:41:48;7.82;82.13
20862;DHT22;10591;52.532;13.348;2023-02-17T00:44:21;7.98;81.79
20862;DHT22;10591;52.532;13.348;2023-02-17T00:46:52;7.78;82.36
20862;DHT22;10591;52.532;13.348;2023-02-17T00:49:25;7.92;82.09
20862;DHT22;10591;52.532;13.348;2023-02-17T00:52:02;7.84;82.40
20862;DHT22;10591;52.532;13.348;2023-02-17T00:54:31;7.78;82.60
20862;DHT22;10591;52.532;13.348;2023-02-17T00:57:04;7.84;82.61
20862;DHT22;10591;52.532;13.348;2023-02-17T00:59:35;7.83;82.75
20862;DHT22;10591;52.532;13.348;2023-02-17T01:02:08;7.83;83.08
20862;DHT22;10591;52.532;13.348;2023-02-17T01:04:43;7.88;82.74
20862;DHT22;10591;52.532;13.348;2023-02-17T01:07:15;7.77;82.78
20862;DHT22;10591;52.532;13.348;2023-02-17T01:09:46;7.82;82.65
20862;DHT22;10591;52.532;13.348;2023-02-17T01:12:16;7.84;82.71
20862;DHT22;10591;52.532;13.348;2023-02-17T01:14:48;7.95;82.07
20862;DHT22;10591;52.532;13.348;2023-02-17T01:17:18;7.94;82.16
20862;DHT22;10591;52.532;13.348;2023-02-17T01:19:51;7.94;81.97
20862;DHT22;10591;52.532;13.348;2023-02-17T01:22:23;7.86;81.97
20862;DHT22;10591;52.532;13.348;2023-02-17T01:24:54;8.00;82.08
20862;DHT22;10591;52.532;13.348;2023-02-17T01:27:26;7.85;82.45
20862;DHT22;10591;52.532;13.348;2023-02-17T01:29:58;7.90;82.30
20862;DHT22;10591;52.532;13.348;2023-02-17T01:32:35;7.94;82.02
20862;DHT22;10591;52.532;13.348;2023-02-17T01:35:03;7.97;81.79
20862;DHT22;10591;52.532;13.348;2023-02-17T01:37:35;8.16;81.35
20862;DHT22;10591;52.532;13.348;2023-02-17T01:40:06;8.12;81.20
20862;DHT22;10591;52.532;13.348;2023-02-17T01:42:37;8.20;81.27
20862;DHT22;10591;52.532;13.348;2023-02-17T01:48:00;8.10;81.38
20862;DHT22;10591;52.532;13.348;2023-02-17T01:50:43;7.97;81.67
20862;DHT22;10591;52.532;13.348;2023-02-17T01:53:17;8.03;81.70
20862;DHT22;10591;52.532;13.348;2023-02-17T01:55:51;7.96;82.12
20862;DHT22;10591;52.532;13.348;2023-02-17T01:58:24;7.96;82.19
20862;DHT22;10591;52.532;13.348;2023-02-17T02:00:56;8.27;81.72
20862;DHT22;10591;52.532;13.348;2023-02-17T02:03:31;8.04;82.21
20862;DHT22;10591;52.532;13.348;2023-02-17T02:06:12;8.02;82.25
20862;DHT22;10591;52.532;13.348;2023-02-17T02:11:21;7.97;83.40
20862;DHT22;10591;52.532;13.348;2023-02-17T02:13:52;7.91;83.87
20862;DHT22;10591;52.532;13.348;2023-02-17T02:33:32;7.51;86.83
20862;DHT22;10591;52.532;13.348;2023-02-17T02:38:42;7.52;86.56
20862;DHT22;10591;52.532;13.348;2023-02-17T02:41:21;7.54;86.80
20862;DHT22;10591;52.532;13.348;2023-02-17T02:43:54;7.37;86.89
20862;DHT22;10591;52.532;13.348;2023-02-17T02:46:25;7.44;86.91
20862;DHT22;10591;52.532;13.348;2023-02-17T02:48:55;7.40;86.92
20862;DHT22;10591;52.532;13.348;2023-02-17T02:54:18;7.59;87.12
20862;DHT22;10591;52.532;13.348;2023-02-17T02:57:30;7.47;87.13
20862;DHT22;10591;52.532;13.348;2023-02-17T03:02:52;7.44;87.22
20862;DHT22;10591;52.532;13.348;2023-02-17T03:10:54;7.38;87.48
20862;DHT22;10591;52.532;13.348;2023-02-17T03:13:26;7.44;87.71
20862;DHT22;10591;52.532;13.348;2023-02-17T03:15:57;7.40;87.66
20862;DHT22;10591;52.532;13.348;2023-02-17T03:18:30;7.34;87.59
20862;DHT22;10591;52.532;13.348;2023-02-17T03:21:08;7.34;88.16
20862;DHT22;10591;52.532;13.348;2023-02-17T03:23:37;7.38;87.65
20862;DHT22;10591;52.532;13.348;2023-02-17T03:26:08;7.52;87.71
20862;DHT22;10591;52.532;13.348;2023-02-17T03:28:39;7.40;87.66
20862;DHT22;10591;52.532;13.348;2023-02-17T03:31:09;7.38;87.74
20862;DHT22;10591;52.532;13.348;2023-02-17T03:33:43;7.40;87.70
20862;DHT22;10591;52.532;13.348;2023-02-17T03:36:14;7.49;87.66
20862;DHT22;10591;52.532;13.348;2023-02-17T03:38:45;7.52;87.91
20862;DHT22;10591;52.532;13.348;2023-02-17T03:41:16;7.47;87.81
20862;DHT22;10591;52.532;13.348;2023-02-17T03:43:47;7.34;88.00
20862;DHT22;10591;52.532;13.348;2023-02-17T03:46:18;7.40;87.99
20862;DHT22;10591;52.532;13.348;2023-02-17T03:48:49;7.36;87.96
20862;DHT22;10591;52.532;13.348;2023-02-17T03:51:21;7.46;88.12
20862;DHT22;10591;52.532;13.348;2023-02-17T03:53:52;7.27;88.45
20862;DHT22;10591;52.532;13.348;2023-02-17T03:56:23;7.27;88.63
20862;DHT22;10591;52.532;13.348;2023-02-17T03:58:53;7.34;88.84
20862;DHT22;10591;52.532;13.348;2023-02-17T04:01:24;7.58;88.52
20862;DHT22;10591;52.532;13.348;2023-02-17T04:03:54;7.40;88.69
20862;DHT22;10591;52.532;13.348;2023-02-17T04:06:25;7.50;88.64
20862;DHT22;10591;52.532;13.348;2023-02-17T04:08:56;7.37;88.76
20862;DHT22;10591;52.532;13.348;2023-02-17T04:11:26;7.35;89.02
20862;DHT22;10591;52.532;13.348;2023-02-17T04:13:57;7.38;89.07
20862;DHT22;10591;52.532;13.348;2023-02-17T04:16:27;7.49;89.01
20862;DHT22;10591;52.532;13.348;2023-02-17T04:18:58;7.38;89.16
20862;DHT22;10591;52.532;13.348;2023-02-17T04:21:32;7.30;89.18
20862;DHT22;10591;52.532;13.348;2023-02-17T04:24:03;7.38;89.25
20862;DHT22;10591;52.532;13.348;2023-02-17T04:26:35;7.58;89.17
20862;DHT22;10591;52.532;13.348;2023-02-17T04:29:08;7.50;89.32
20862;DHT22;10591;52.532;13.348;2023-02-17T04:31:42;7.50;89.24
20862;DHT22;10591;52.532;13.348;2023-02-17T04:34:14;7.46;89.41
20862;DHT22;10591;52.532;13.348;2023-02-17T04:36:44;7.52;89.50
20862;DHT22;10591;52.532;13.348;2023-02-17T04:39:15;7.36;89.64
20862;DHT22;10591;52.532;13.348;2023-02-17T04:41:45;7.41;89.72
20862;DHT22;10591;52.532;13.348;2023-02-17T04:44:18;7.55;89.60
20862;DHT22;10591;52.532;13.348;2023-02-17T04:46:48;7.64;89.53
20862;DHT22;10591;52.532;13.348;2023-02-17T04:49:19;7.48;89.63
20862;DHT22;10591;52.532;13.348;2023-02-17T04:51:49;7.52;89.59
20862;DHT22;10591;52.532;13.348;2023-02-17T04:54:20;7.48;89.62
20862;DHT22;10591;52.532;13.348;2023-02-17T04:56:54;7.50;89.63
20862;DHT22;10591;52.532;13.348;2023-02-17T04:59:25;7.62;89.66
20862;DHT22;10591;52.532;13.348;2023-02-17T05:01:57;7.61;89.66
20862;DHT22;10591;52.532;13.348;2023-02-17T05:04:31;7.62;89.62
20862;DHT22;10591;52.532;13.348;2023-02-17T05:07:02;7.66;89.59
20862;DHT22;10591;52.532;13.348;2023-02-17T05:09:33;7.56;89.56
20862;DHT22;10591;52.532;13.348;2023-02-17T05:12:04;7.63;89.64
20862;DHT22;10591;52.532;13.348;2023-02-17T05:14:36;7.62;89.70
20862;DHT22;10591;52.532;13.348;2023-02-17T05:17:09;7.69;89.55
20862;DHT22;10591;52.532;13.348;2023-02-17T05:19:39;7.56;89.65
20862;DHT22;10591;52.532;13.348;2023-02-17T05:22:10;7.77;89.52
20862;DHT22;10591;52.532;13.348;2023-02-17T05:24:40;7.68;89.68
20862;DHT22;10591;52.532;13.348;2023-02-17T05:27:11;7.62;89.62
20862;DHT22;10591;52.532;13.348;2023-02-17T05:29:43;7.57;89.51
20862;DHT22;10591;52.532;13.348;2023-02-17T05:32:14;7.51;89.72
20862;DHT22;10591;52.532;13.348;2023-02-17T05:34:44;7.48;89.63
20862;DHT22;10591;52.532;13.348;2023-02-17T05:37:19;7.66;89.54
20862;DHT22;10591;52.532;13.348;2023-02-17T05:39:51;7.80;89.27
20862;DHT22;10591;52.532;13.348;2023-02-17T05:42:21;7.62;89.20
20862;DHT22;10591;52.532;13.348;2023-02-17T05:44:56;7.66;89.14
20862;DHT22;10591;52.532;13.348;2023-02-17T05:47:27;7.63;89.33
20862;DHT22;10591;52.532;13.348;2023-02-17T05:49:57;7.71;89.20
20862;DHT22;10591;52.532;13.348;2023-02-17T05:52:29;7.69;88.93
20862;DHT22;10591;52.532;13.348;2023-02-17T05:55:00;7.66;88.92
20862;DHT22;10591;52.532;13.348;2023-02-17T05:57:32;7.64;89.05
20862;DHT22;10591;52.532;13.348;2023-02-17T06:00:03;7.59;89.26
20862;DHT22;10591;52.532;13.348;2023-02-17T06:02:35;7.60;89.26
20862;DHT22;10591;52.532;13.348;2023-02-17T06:05:09;7.57;89.28
20862;DHT22;10591;52.532;13.348;2023-02-17T06:07:40;7.68;89.28
20862;DHT22;10591;52.532;13.348;2023-02-17T06:10:11;7.68;89.19
20862;DHT22;10591;52.532;13.348;2023-02-17T06:12:42;7.52;89.24
20862;DHT22;10591;52.532;13.348;2023-02-17T06:15:14;7.54;89.18
20862;DHT22;10591;52.532;13.348;2023-02-17T06:17:45;7.62;89.07
20862;DHT22;10591;52.532;13.348;2023-02-17T06:20:16;7.71;88.84
20862;DHT22;10591;52.532;13.348;2023-02-17T06:22:47;7.60;89.13
20862;DHT22;10591;52.532;13.348;2023-02-17T06:25:18;7.81;88.78
20862;DHT22;10591;52.532;13.348;2023-02-17T06:27:48;7.82;88.61
20862;DHT22;10591;52.532;13.348;2023-02-17T06:30:19;7.84;88.28
20862;DHT22;10591;52.532;13.348;2023-02-17T06:32:52;7.67;88.50
20862;DHT22;10591;52.532;13.348;2023-02-17T06:35:25;7.79;88.56
20862;DHT22;10591;52.532;13.348;2023-02-17T06:37:56;7.86;88.57
20862;DHT22;10591;52.532;13.348;2023-02-17T06:40:26;7.79;88.25
20862;DHT22;10591;52.532;13.348;2023-02-17T06:42:58;7.80;88.36
20862;DHT22;10591;52.532;13.348;2023-02-17T06:45:29;7.92;88.32
20862;DHT22;10591;52.532;13.348;2023-02-17T06:48:01;7.93;87.99
20862;DHT22;10591;52.532;13.348;2023-02-17T06:50:32;7.98;87.80
20862;DHT22;10591;52.532;13.348;2023-02-17T06:53:03;7.89;87.87
20862;DHT22;10591;52.532;13.348;2023-02-17T06:55:34;8.12;87.64
20862;DHT22;10591;52.532;13.348;2023-02-17T06:58:06;8.02;87.84
20862;DHT22;10591;52.532;13.348;2023-02-17T07:00:37;7.97;87.89
20862;DHT22;10591;52.532;13.348;2023-02-17T07:03:08;8.14;87.88
20862;DHT22;10591;52.532;13.348;2023-02-17T07:05:39;8.07;87.87
20862;DHT22;10591;52.532;13.348;2023-02-17T07:08:09;8.18;87.44
20862;DHT22;10591;52.532;13.348;2023-02-17T07:10:40;8.29;87.17
20862;DHT22;10591;52.532;13.348;2023-02-17T07:13:10;8.22;87.42
20862;DHT22;10591;52.532;13.348;2023-02-17T07:15:42;8.33;86.97
20862;DHT22;10591;52.532;13.348;2023-02-17T07:18:13;8.34;86.90
20862;DHT22;10591;52.532;13.348;2023-02-17T07:20:44;8.28;86.97
20862;DHT22;10591;52.532;13.348;2023-02-17T07:23:16;8.36;87.00
20862;DHT22;10591;52.532;13.348;2023-02-17T07:25:49;8.47;86.62
20862;DHT22;10591;52.532;13.348;2023-02-17T07:28:21;8.44;86.65
20862;DHT22;10591;52.532;13.348;2023-02-17T07:30:52;8.50;86.26
20862;DHT22;10591;52.532;13.348;2023-02-17T07:33:23;8.52;86.47
20862;DHT22;10591;52.532;13.348;2023-02-17T07:35:56;8.64;86.15
20862;DHT22;10591;52.532;13.348;2023-02-17T07:38:29;8.66;85.65
20862;DHT22;10591;52.532;13.348;2023-02-17T07:41:11;8.78;86.17
20862;DHT22;10591;52.532;13.348;2023-02-17T07:43:45;8.74;85.70
20862;DHT22;10591;52.532;13.348;2023-02-17T07:46:19;8.72;86.09
20862;DHT22;10591;52.532;13.348;2023-02-17T07:48:51;8.71;85.65
20862;DHT22;10591;52.532;13.348;2023-02-17T07:51:24;8.88;85.73
20862;DHT22;10591;52.532;13.348;2023-02-17T07:53:56;8.90;85.16
20862;DHT22;10591;52.532;13.348;2023-02-17T07:56:31;8.94;85.59
20862;DHT22;10591;52.532;13.348;2023-02-17T07:59:10;8.99;85.36
20862;DHT22;10591;52.532;13.348;2023-02-17T08:01:41;9.00;85.37
20862;DHT22;10591;52.532;13.348;2023-02-17T08:04:13;9.12;84.93
20862;DHT22;10591;52.532;13.348;2023-02-17T08:06:45;9.18;85.04
20862;DHT22;10591;52.532;13.348;2023-02-17T08:09:16;9.13;84.98
20862;DHT22;10591;52.532;13.348;2023-02-17T08:12:11;9.25;84.42
20862;DHT22;10591;52.532;13.348;2023-02-17T08:14:58;9.13;84.70
20862;DHT22;10591;52.532;13.348;2023-02-17T08:17:30;9.12;84.70
20862;DHT22;10591;52.532;13.348;2023-02-17T08:20:01;9.21;85.00
20862;DHT22;10591;52.532;13.348;2023-02-17T08:22:38;9.24;84.81
20862;DHT22;10591;52.532;13.348;2023-02-17T08:25:10;9.20;85.05
20862;DHT22;10591;52.532;13.348;2023-02-17T08:27:40;9.21;85.28
20862;DHT22;10591;52.532;13.348;2023-02-17T08:30:13;9.14;85.68
20862;DHT22;10591;52.532;13.348;2023-02-17T08:32:44;9.21;85.74
20862;DHT22;10591;52.532;13.348;2023-02-17T08:35:16;9.08;86.12
20862;DHT22;10591;52.532;13.348;2023-02-17T08:37:49;9.13;86.21
20862;DHT22;10591;52.532;13.348;2023-02-17T08:40:19;9.00;86.45
20862;DHT22;10591;52.532;13.348;2023-02-17T08:42:52;8.99;86.82
20862;DHT22;10591;52.532;13.348;2023-02-17T08:45:22;9.04;86.57
20862;DHT22;10591;52.532;13.348;2023-02-17T08:47:53;8.92;87.11
20862;DHT22;10591;52.532;13.348;2023-02-17T08:50:23;9.07;86.90
20862;DHT22;10591;52.532;13.348;2023-02-17T08:52:54;9.06;86.95
20862;DHT22;10591;52.532;13.348;2023-02-17T08:55:26;9.06;87.31
20862;DHT22;10591;52.532;13.348;2023-02-17T08:57:58;9.01;87.30
20862;DHT22;10591;52.532;13.348;2023-02-17T09:00:28;9.00;87.40
20862;DHT22;10591;52.532;13.348;2023-02-17T09:02:59;9.02;87.65
20862;DHT22;10591;52.532;13.348;2023-02-17T09:05:29;9.14;87.18
20862;DHT22;10591;52.532;13.348;2023-02-17T09:08:03;9.16;87.06
20862;DHT22;10591;52.532;13.348;2023-02-17T09:10:35;9.10;87.50
20862;DHT22;10591;52.532;13.348;2023-02-17T09:13:05;9.14;87.74
20862;DHT22;10591;52.532;13.348;2023-02-17T09:15:37;9.10;87.79
20862;DHT22;10591;52.532;13.348;2023-02-17T09:18:08;9.24;87.53
20862;DHT22;10591;52.532;13.348;2023-02-17T09:20:38;9.18;87.20
20862;DHT22;10591;52.532;13.348;2023-02-17T09:23:10;9.18;87.65
20862;DHT22;10591;52.532;13.348;2023-02-17T09:25:43;9.13;87.75
20862;DHT22;10591;52.532;13.348;2023-02-17T09:28:14;9.24;87.76
20862;DHT22;10591;52.532;13.348;2023-02-17T09:30:47;9.40;87.52
20862;DHT22;10591;52.532;13.348;2023-02-17T09:33:17;9.30;87.68
20862;DHT22;10591;52.532;13.348;2023-02-17T09:35:48;9.26;87.85
20862;DHT22;10591;52.532;13.348;2023-02-17T09:38:20;9.36;87.63
20862;DHT22;10591;52.532;13.348;2023-02-17T09:40:53;9.37;87.76
20862;DHT22;10591;52.532;13.348;2023-02-17T09:43:27;9.44;87.49
20862;DHT22;10591;52.532;13.348;2023-02-17T09:46:06;9.41;87.82
20862;DHT22;10591;52.532;13.348;2023-02-17T09:48:33;9.32;87.87
20862;DHT22;10591;52.532;13.348;2023-02-17T09:51:11;9.36;88.05
20862;DHT22;10591;52.532;13.348;2023-02-17T09:54:48;9.29;88.07
20862;DHT22;10591;52.532;13.348;2023-02-17T09:56:37;9.26;88.08
20862;DHT22;10591;52.532;13.348;2023-02-17T09:59:31;9.16;88.15
20862;DHT22;10591;52.532;13.348;2023-02-17T10:02:06;9.23;88.03
20862;DHT22;10591;52.532;13.348;2023-02-17T10:04:40;9.31;88.16
20862;DHT22;10591;52.532;13.348;2023-02-17T10:07:34;9.40;88.03
20862;DHT22;10591;52.532;13.348;2023-02-17T10:10:08;9.34;87.83
20862;DHT22;10591;52.532;13.348;2023-02-17T10:12:43;9.38;87.88
20862;DHT22;10591;52.532;13.348;2023-02-17T10:15:22;9.26;88.21
20862;DHT22;10591;52.532;13.348;2023-02-17T10:18:10;9.34;88.32
20862;DHT22;10591;52.532;13.348;2023-02-17T10:23:27;9.32;88.23
20862;DHT22;10591;52.532;13.348;2023-02-17T10:26:24;9.40;88.27
20862;DHT22;10591;52.532;13.348;2023-02-17T10:29:18;9.34;88.32
20862;DHT22;10591;52.532;13.348;2023-02-17T10:37:54;9.55;88.12
20862;DHT22;10591;52.532;13.348;2023-02-17T10:40:22;9.53;87.51
20862;DHT22;10591;52.532;13.348;2023-02-17T10:43:00;9.56;87.57
20862;DHT22;10591;52.532;13.348;2023-02-17T10:45:45;9.57;87.73
20862;DHT22;10591;52.532;13.348;2023-02-17T10:50:52;10.05;87.14
20862;DHT22;10591;52.532;13.348;2023-02-17T10:53:30;10.06;86.26
20862;DHT22;10591;52.532;13.348;2023-02-17T10:56:24;9.86;86.37
20862;DHT22;10591;52.532;13.348;2023-02-17T10:59:04;9.87;86.60
20862;DHT22;10591;52.532;13.348;2023-02-17T11:01:33;9.92;86.38
20862;DHT22;10591;52.532;13.348;2023-02-17T11:04:08;9.87;86.58
20862;DHT22;10591;52.532;13.348;2023-02-17T11:06:51;9.85;86.54
20862;DHT22;10591;52.532;13.348;2023-02-17T11:09:20;9.86;86.50
20862;DHT22;10591;52.532;13.348;2023-02-17T11:12:54;10.06;86.27
20862;DHT22;10591;52.532;13.348;2023-02-17T11:14:35;10.02;85.96
20862;DHT22;10591;52.532;13.348;2023-02-17T11:17:27;9.96;86.01
20862;DHT22;10591;52.532;13.348;2023-02-17T11:20:03;10.00;85.81
20862;DHT22;10591;52.532;13.348;2023-02-17T11:22:45;10.03;86.12
20862;DHT22;10591;52.532;13.348;2023-02-17T11:25:27;10.03;85.94
20862;DHT22;10591;52.532;13.348;2023-02-17T11:28:00;10.11;85.91
20862;DHT22;10591;52.532;13.348;2023-02-17T11:30:34;10.22;85.47
20862;DHT22;10591;52.532;13.348;2023-02-17T11:33:20;10.17;85.37
20862;DHT22;10591;52.532;13.348;2023-02-17T11:35:53;10.26;85.34
20862;DHT22;10591;52.532;13.348;2023-02-17T11:38:42;10.24;85.20
20862;DHT22;10591;52.532;13.348;2023-02-17T11:41:14;10.25;85.53
20862;DHT22;10591;52.532;13.348;2023-02-17T11:43:53;10.39;85.05
20862;DHT22;10591;52.532;13.348;2023-02-17T11:46:54;10.39;84.67
20862;DHT22;10591;52.532;13.348;2023-02-17T11:55:22;10.43;84.73
20862;DHT22;10591;52.532;13.348;2023-02-17T11:58:12;10.64;84.33
20862;DHT22;10591;52.532;13.348;2023-02-17T12:00:41;10.66;84.17
20862;DHT22;10591;52.532;13.348;2023-02-17T12:03:42;10.59;84.49
20862;DHT22;10591;52.532;13.348;2023-02-17T12:09:18;10.66;84.57
20862;DHT22;10591;52.532;13.348;2023-02-17T12:11:58;10.74;83.79
20862;DHT22;10591;52.532;13.348;2023-02-17T12:20:40;10.98;82.94
20862;DHT22;10591;52.532;13.348;2023-02-17T12:23:34;10.84;83.33
20862;DHT22;10591;52.532;13.348;2023-02-17T12:31:59;11.07;82.89
20862;DHT22;10591;52.532;13.348;2023-02-17T12:34:30;11.17;82.30
20862;DHT22;10591;52.532;13.348;2023-02-17T12:37:01;11.36;81.94
20862;DHT22;10591;52.532;13.348;2023-02-17T12:39:47;11.23;82.15
20862;DHT22;10591;52.532;13.348;2023-02-17T12:44:59;11.30;81.98
20862;DHT22;10591;52.532;13.348;2023-02-17T12:47:43;11.41;81.43
20862;DHT22;10591;52.532;13.348;2023-02-17T12:50:19;11.44;81.56
20862;DHT22;10591;52.532;13.348;2023-02-17T12:52:52;11.64;80.91
20862;DHT22;10591;52.532;13.348;2023-02-17T12:55:42;11.59;80.59
20862;DHT22;10591;52.532;13.348;2023-02-17T12:58:25;11.72;80.23
20862;DHT22;10591;52.532;13.348;2023-02-17T13:01:06;11.65;80.53
20862;DHT22;10591;52.532;13.348;2023-02-17T13:03:38;11.71;80.28
20862;DHT22;10591;52.532;13.348;2023-02-17T13:08:58;11.57;80.71
20862;DHT22;10591;52.532;13.348;2023-02-17T13:11:32;11.56;80.66
20862;DHT22;10591;52.532;13.348;2023-02-17T13:14:11;11.64;80.63
20862;DHT22;10591;52.532;13.348;2023-02-17T13:16:44;11.50;80.92
20862;DHT22;10591;52.532;13.348;2023-02-17T13:19:15;11.72;80.15
20862;DHT22;10591;52.532;13.348;2023-02-17T13:21:55;11.68;80.64
20862;DHT22;10591;52.532;13.348;2023-02-17T13:24:34;11.70;80.79
20862;DHT22;10591;52.532;13.348;2023-02-17T13:32:39;13.60;75.54
20862;DHT22;10591;52.532;13.348;2023-02-17T13:37:59;14.06;73.63
20862;DHT22;10591;52.532;13.348;2023-02-17T13:40:32;13.68;73.84
20862;DHT22;10591;52.532;13.348;2023-02-17T13:43:18;13.10;75.87
20862;DHT22;10591;52.532;13.348;2023-02-17T13:46:02;12.71;77.00
20862;DHT22;10591;52.532;13.348;2023-02-17T13:48:35;12.53;78.15
20862;DHT22;10591;52.532;13.348;2023-02-17T13:51:07;12.27;79.07
20862;DHT22;10591;52.532;13.348;2023-02-17T13:53:40;12.33;78.97
20862;DHT22;10591;52.532;13.348;2023-02-17T13:56:28;12.28;79.27
20862;DHT22;10591;52.532;13.348;2023-02-17T13:59:17;12.22;79.37
20862;DHT22;10591;52.532;13.348;2023-02-17T14:01:45;12.34;79.12
20862;DHT22;10591;52.532;13.348;2023-02-17T14:04:26;12.35;79.42
20862;DHT22;10591;52.532;13.348;2023-02-17T14:06:58;12.36;79.65
20862;DHT22;10591;52.532;13.348;2023-02-17T14:09:33;12.35;79.77
20862;DHT22;10591;52.532;13.348;2023-02-17T14:12:16;12.26;79.88
20862;DHT22;10591;52.532;13.348;2023-02-17T14:14:43;12.32;79.86
20862;DHT22;10591;52.532;13.348;2023-02-17T14:17:28;12.28;79.80
20862;DHT22;10591;52.532;13.348;2023-02-17T14:20:04;12.33;79.54
20862;DHT22;10591;52.532;13.348;2023-02-17T14:22:36;12.34;79.60
20862;DHT22;10591;52.532;13.348;2023-02-17T14:25:13;12.33;79.67
20862;DHT22;10591;52.532;13.348;2023-02-17T14:27:48;12.38;79.85
20862;DHT22;10591;52.532;13.348;2023-02-17T14:30:37;12.45;79.96
20862;DHT22;10591;52.532;13.348;2023-02-17T14:35:54;12.28;80.69
20862;DHT22;10591;52.532;13.348;2023-02-17T14:38:35;12.18;81.12
20862;DHT22;10591;52.532;13.348;2023-02-17T14:41:07;12.28;80.82
20862;DHT22;10591;52.532;13.348;2023-02-17T14:43:39;12.29;81.07
20862;DHT22;10591;52.532;13.348;2023-02-17T14:46:13;12.13;81.62
20862;DHT22;10591;52.532;13.348;2023-02-17T14:48:46;12.10;82.78
20862;DHT22;10591;52.532;13.348;2023-02-17T14:51:21;11.88;84.07
20862;DHT22;10591;52.532;13.348;2023-02-17T14:53:53;11.54;85.93
20862;DHT22;10591;52.532;13.348;2023-02-17T14:56:32;11.44;86.74
20862;DHT22;10591;52.532;13.348;2023-02-17T14:59:08;11.33;87.18
20862;DHT22;10591;52.532;13.348;2023-02-17T15:01:41;11.23;87.65
20862;DHT22;10591;52.532;13.348;2023-02-17T15:04:11;11.24;87.84
20862;DHT22;10591;52.532;13.348;2023-02-17T15:06:45;11.16;88.02
20862;DHT22;10591;52.532;13.348;2023-02-17T15:09:21;11.17;88.05
20862;DHT22;10591;52.532;13.348;2023-02-17T15:11:52;11.14;88.14
20862;DHT22;10591;52.532;13.348;2023-02-17T15:14:23;11.16;88.09
20862;DHT22;10591;52.532;13.348;2023-02-17T15:16:56;11.14;88.34
20862;DHT22;10591;52.532;13.348;2023-02-17T15:19:30;10.98;88.51
20862;DHT22;10591;52.532;13.348;2023-02-17T15:22:02;11.08;88.35
20862;DHT22;10591;52.532;13.348;2023-02-17T15:24:37;11.05;88.41
20862;DHT22;10591;52.532;13.348;2023-02-17T15:27:11;11.02;88.48
20862;DHT22;10591;52.532;13.348;2023-02-17T15:29:41;11.04;88.57
20862;DHT22;10591;52.532;13.348;2023-02-17T15:32:15;11.02;88.70
20862;DHT22;10591;52.532;13.348;2023-02-17T15:34:49;11.05;88.79
20862;DHT22;10591;52.532;13.348;2023-02-17T15:37:20;10.96;88.86
20862;DHT22;10591;52.532;13.348;2023-02-17T15:39:51;10.92;88.83
20862;DHT22;10591;52.532;13.348;2023-02-17T15:42:28;10.91;88.81
20862;DHT22;10591;52.532;13.348;2023-02-17T15:45:00;10.93;88.76
20862;DHT22;10591;52.532;13.348;2023-02-17T15:47:32;10.88;88.80
20862;DHT22;10591;52.532;13.348;2023-02-17T15:50:03;10.93;88.72
20862;DHT22;10591;52.532;13.348;2023-02-17T15:52:37;11.01;88.56
20862;DHT22;10591;52.532;13.348;2023-02-17T15:55:09;11.00;88.42
20862;DHT22;10591;52.532;13.348;2023-02-17T15:57:45;11.02;88.43
20862;DHT22;10591;52.532;13.348;2023-02-17T16:00:22;11.00;88.37
20862;DHT22;10591;52.532;13.348;2023-02-17T16:02:54;11.06;87.91
20862;DHT22;10591;52.532;13.348;2023-02-17T16:05:29;11.08;87.74
20862;DHT22;10591;52.532;13.348;2023-02-17T16:08:01;11.10;87.62
20862;DHT22;10591;52.532;13.348;2023-02-17T16:10:32;11.00;87.65
20862;DHT22;10591;52.532;13.348;2023-02-17T16:13:03;11.12;87.54
20862;DHT22;10591;52.532;13.348;2023-02-17T16:15:36;11.12;87.08
20862;DHT22;10591;52.532;13.348;2023-02-17T16:18:18;11.14;86.69
20862;DHT22;10591;52.532;13.348;2023-02-17T16:20:50;11.19;86.42
20862;DHT22;10591;52.532;13.348;2023-02-17T16:23:23;11.24;86.00
20862;DHT22;10591;52.532;13.348;2023-02-17T16:25:55;11.29;85.96
20862;DHT22;10591;52.532;13.348;2023-02-17T16:28:27;11.28;85.96
20862;DHT22;10591;52.532;13.348;2023-02-17T16:30:59;11.21;85.64
20862;DHT22;10591;52.532;13.348;2023-02-17T16:33:31;11.18;85.75
20862;DHT22;10591;52.532;13.348;2023-02-17T16:36:11;11.21;85.43
20862;DHT22;10591;52.532;13.348;2023-02-17T16:38:39;11.22;85.29
20862;DHT22;10591;52.532;13.348;2023-02-17T16:41:14;11.33;84.28
20862;DHT22;10591;52.532;13.348;2023-02-17T16:43:45;11.37;83.62
20862;DHT22;10591;52.532;13.348;2023-02-17T16:46:22;11.39;83.48
20862;DHT22;10591;52.532;13.348;2023-02-17T16:48:54;11.52;82.79
20862;DHT22;10591;52.532;13.348;2023-02-17T16:51:25;11.54;82.68
20862;DHT22;10591;52.532;13.348;2023-02-17T16:53:58;11.49;82.66
20862;DHT22;10591;52.532;13.348;2023-02-17T16:56:35;11.47;82.42
20862;DHT22;10591;52.532;13.348;2023-02-17T16:59:11;11.49;82.06
20862;DHT22;10591;52.532;13.348;2023-02-17T17:01:39;11.59;81.89
20862;DHT22;10591;52.532;13.348;2023-02-17T17:04:10;11.58;81.84
20862;DHT22;10591;52.532;13.348;2023-02-17T17:06:45;11.58;81.70
20862;DHT22;10591;52.532;13.348;2023-02-17T17:09:19;11.56;81.10
20862;DHT22;10591;52.532;13.348;2023-02-17T17:11:49;11.46;81.76
20862;DHT22;10591;52.532;13.348;2023-02-17T17:14:20;11.49;81.43
20862;DHT22;10591;52.532;13.348;2023-02-17T17:16:59;11.50;81.33
20862;DHT22;10591;52.532;13.348;2023-02-17T17:19:31;11.52;81.38
20862;DHT22;10591;52.532;13.348;2023-02-17T17:22:04;11.53;81.48
20862;DHT22;10591;52.532;13.348;2023-02-17T17:24:34;11.58;81.47
20862;DHT22;10591;52.532;13.348;2023-02-17T17:27:05;11.53;81.56
20862;DHT22;10591;52.532;13.348;2023-02-17T17:29:36;11.64;81.44
20862;DHT22;10591;52.532;13.348;2023-02-17T17:32:08;11.56;81.34